Impacts METAR Board
IDs:

KT35 - Cameron Muni, TX, US

Updated at: 2300 UTC 29 May 2020
Potential Impact None Slight Moderate High
Time 29/11Z 29/12Z 29/13Z 29/14Z 29/15Z 29/16Z 29/17Z 29/18Z 29/19Z 29/20Z 29/21Z 29/22Z 29/23Z
Temp67 67 70 73 76 78 80 83 84 86 86 86 86
Dewpt65 66 66 66 67 65 65 64 60 56 58 60 58
Altim30.06 30.09 30.11 30.12 30.12 30.11 30.11 30.10 30.11 30.11 30.11 30.08 30.07
VIS10 10 10 10 10 7 10 10 10 10 10 10 10
CIG47 -- -- -- -- -- -- -- -- -- -- -- --
CoverBKNCLRSCTCLRCLRSCTSCTCLRCLRCLRCLRCLRCLR
FltCatVFRVFRVFRVFRVFRVFRVFRVFRVFRVFRVFRVFRVFR
WX--------------------------
WDir3000360102040360203040403040
WSpd3 0 5 7 9 10 11 10 11 11 12 11 8
WGst-- -- -- -- -- -- 14 14 17 16 16 16 --
Raw hourly METARs
KT35 291055Z AUTO 30003KT 10SM BKN047 20/19 A3006 RMK AO2 T01960185
KT35 291155Z AUTO 00000KT 10SM CLR 20/19 A3009 RMK AO2 T01970187 10215 20192
KT35 291255Z AUTO 36005KT 10SM SCT044 21/19 A3011 RMK AO2 T02120191
KT35 291355Z AUTO 01007KT 10SM CLR 23/19 A3012 RMK AO2 T02250191
KT35 291455Z AUTO 02009KT 10SM CLR 24/19 A3012 RMK AO2 T02420193
KT35 291555Z AUTO 04010KT 7SM SCT025 26/18 A3011 RMK AO2 T02550184
KT35 291655Z AUTO 36011G14KT 10SM SCT002 SCT035 27/18 A3011 RMK AO2 T02690184
KT35 291755Z AUTO 02010G14KT 10SM CLR 28/18 A3010 RMK AO2 T02830177 10284 20198
KT35 291855Z AUTO 03011G17KT 10SM CLR 29/15 A3011 RMK AO2 T02910154
KT35 291955Z AUTO 04011G16KT 10SM CLR 30/13 A3011 RMK AO2 T03000134
KT35 292055Z AUTO 04012G16KT 10SM CLR 30/15 A3011 RMK AO2 T02990145
KT35 292155Z AUTO 03011G16KT 10SM CLR 30/16 A3008 RMK AO2 T03010156
KT35 292255Z AUTO 04008KT 10SM CLR 30/14 A3007 RMK AO2 T02990144